Aviation Digital Data Service (ADDS)

Output produced by TAFs form (1809 UTC 18 August 2018)
found at http://aviationweather.gov/adds/tafs/
 
KRDG 181754Z VRB06KT 10SM FEW060 30/23 A2982 RMK AO2 SLP101 60000 T03000228 10300 20233 57016
KRDG 181731Z 1818/1918 26007KT P6SM VCTS SCT025 OVC050CB 
     TEMPO 1819/1822 3SM TSRA OVC035CB 
     FM182300 31004KT P6SM BKN045 
     FM190900 VRB02KT 5SM BR BKN025 
     FM191200 03005KT 6SM BR BKN015
       
KABE 181751Z 24011KT 10SM SCT030 29/22 A2983 RMK AO2 SLP096 T02940217 10294 20233 58016
KABE 181731Z 1818/1918 27009KT P6SM VCTS SCT025 OVC045CB 
     TEMPO 1819/1822 3SM TSRA OVC035CB 
     FM182300 30004KT P6SM BKN050 
     FM190900 04004KT 5SM BR BKN025 
     FM191200 05007KT 6SM BR OVC015
       
KPNE 181754Z 25012KT 10SM CLR 32/22 A2983 RMK AO2 SLP100 T03220217 10322 20250 58017
KPNE 181731Z 1818/1918 29008KT P6SM VCTS SCT035 BKN060CB 
     TEMPO 1822/1901 3SM TSRA OVC035CB 
     FM190100 33006KT P6SM BKN050 
     FM191000 03004KT P6SM BKN025 
     FM191300 06008KT P6SM OVC015